x

8452944 - Conimicut Light, Ri (cptr1) Weather Station

8:00 - Fri 20th Jan 2017 All times are EST. -5 hours from GMT.

  • Wind
    8mph, 9mph gusts
  • Sea Temp 40°f
  • Aire Temp 34°f
  • Sea Pressure 1016.3mb
  • 8452944 - Conimicut Light, Ri
  • 8452944 - Conimicut Light, Ri

More Historic Weather Station data

Upgrade to MSW Pro to gain access to the past 30 days of data for over 8000 Wavebouys and Weather Stations around the globe.

Join Pro

Comparision Forecast

View Surf forecast
   
vie 01/20 8:00 8 9 mph 1016.3mb 40f 34f
7:54 9 10 mph 1016.3mb 40f 33f
7:48 8 9 mph 1016.2mb 40f 33f
7:42 7 8 mph 1016.2mb 40f 33f
7:36 6 7 mph 1016.3mb 40f 33f
7:30 6 7 mph 1016.3mb 40f 33f
7:24 6
mph
1016.4mb 40f 33f
7:18 6
mph
1016.4mb 40f 33f
7:12 6
mph
1016.4mb 40f 33f
7:06 3 5 mph 1016.4mb 40f 33f
7:00 3
mph
1016.4mb 40f 33f
6:54 2 3 mph 1016.3mb 40f 33f
6:48 2 3 mph 1016.2mb 40f 33f
6:42 3
mph
1016.2mb 40f 33f
6:36 3 5 mph 1016.2mb 40f 34f
6:30 6
mph
1016.2mb 40f 34f
6:24 5 6 mph 1016.1mb 40f 34f
6:18 5 6 mph 1016.1mb 40f 34f
6:12 5
mph
1016.1mb 40f 34f
6:06 5 6 mph 1016.1mb 40f 34f
6:00 5
mph
1016.1mb 39f 34f
5:54 5 6 mph 1016.1mb 39f 35f
5:48 5 6 mph 1016.1mb 39f 35f
5:42 5 6 mph 1016.2mb 39f 35f
5:36 5 6 mph 1016.2mb 39f 35f
5:30 3 6 mph 1016.4mb 39f 35f
5:24 6
mph
1016.4mb 39f 35f
5:18 6
mph
1016.4mb 39f 35f
5:12 6
mph
1016.4mb 39f 35f
5:06 6
mph
1016.4mb 39f 35f
5:00 6
mph
1016.4mb 39f 35f
4:54 5 6 mph 1016.2mb 39f 35f
4:48 5 6 mph 1016.2mb 39f 36f
4:42 5 6 mph 1016.2mb 39f 36f
4:36 5 6 mph 1016.2mb 39f 36f
4:30 6 7 mph 1016.2mb 39f 36f
4:24 7
mph
1016.3mb 39f 37f
4:18 7 8 mph 1016.5mb 39f 37f
4:12 7 8 mph 1016.4mb 40f 37f
4:06 7 8 mph 1016.4mb 40f 37f
4:00 7 8 mph 1016.4mb 40f 37f
3:54 8
mph
1016.4mb 40f 37f
3:48 8 9 mph 1016.4mb 40f 37f
3:42 8 10 mph 1016.3mb 40f 37f
3:36 9 10 mph 1016.4mb 40f 37f
3:30 9 10 mph 1016.3mb 40f 37f
3:24 9 10 mph 1016.3mb 40f 37f
3:18 8 10 mph 1016.2mb 40f 38f
3:12 9 10 mph 1016.3mb 40f 38f
3:06 8 9 mph 1016.3mb 40f 38f
3:00 7 8 mph 1016.3mb 40f 38f
2:54 8 9 mph 1016.3mb 40f 38f
2:48 8 9 mph 1016.3mb 40f 38f
2:42 8 9 mph 1016.2mb 40f 38f
2:36 9 10 mph 1016.1mb 40f 38f
2:30 9 10 mph 1016.1mb 40f 38f
2:24 9 11 mph 1016mb 40f 38f
2:18 8 9 mph 1016mb 40f 39f
2:12 6 7 mph 1016mb 40f 39f
2:06 6 8 mph 1016mb 40f 39f
2:00 7 10 mph 1016mb 40f 39f
1:54 7 10 mph 1015.8mb 40f 39f
1:48 9 10 mph 1015.6mb 40f 39f
1:42 7 8 mph 1015.6mb 40f 39f
1:36 5 6 mph 1015.5mb 40f 39f
1:30 5 6 mph 1015.5mb 40f 39f
1:24 5 6 mph 1015.5mb 40f 39f
1:18 5 6 mph 1015.5mb 40f 40f
1:12 6 7 mph 1015.7mb 40f 40f
1:06 5 6 mph 1015.8mb 40f 40f
1:00 6 8 mph 1015.8mb 40f 40f
12:54 6 7 mph 1015.7mb 40f 40f
12:48 7 9 mph 1015.6mb 40f -
12:42 7
mph
1015.6mb 40f -
12:36 6 8 mph 1015.6mb 40f -
12:30 7 8 mph 1015.5mb 40f 40f
12:24 7 10 mph 1015.5mb 40f 40f
12:18 8 11 mph 1015.3mb 40f 40f
12:12 9 11 mph 1015.3mb 40f 40f
12:06 8 10 mph 1015.4mb 40f 40f
12:00 10 13 mph 1015.4mb 40f 40f
jue 01/19 11:54 11 14 mph 1015.4mb 40f 40f
11:48 10 11 mph 1015.4mb 40f 41f
11:42 9 11 mph 1015.5mb 40f 41f
11:36 7 11 mph 1015.6mb 40f 41f
11:30 9 10 mph 1015.7mb 40f 41f
11:24 9 11 mph 1015.7mb 40f 41f
11:18 9 11 mph 1015.6mb 40f 41f
11:12 9 11 mph 1015.6mb 40f 41f
11:06 9 11 mph 1015.7mb 40f 41f
11:00 10 13 mph 1015.9mb 40f 41f
10:54 11 14 mph 1016mb 40f 41f
10:48 9 13 mph 1016.3mb 40f 42f
10:42 11 15 mph 1016.2mb 40f 42f
10:36 11 14 mph 1016.1mb 40f 42f
10:30 11 14 mph 1016.3mb 40f 42f
10:24 11 16 mph 1016.4mb 40f 42f
10:18 13 15 mph 1016.4mb 40f 42f
10:12 13 14 mph 1016.6mb 40f 42f
10:06 11 14 mph 1016.5mb 40f 42f
10:00 11 14 mph 1016.6mb 40f 42f
9:54 11 13 mph 1016.7mb 40f 42f
9:48 10 11 mph 1016.6mb 40f 42f
9:42 11 13 mph 1016.6mb 40f 42f
9:36 10 13 mph 1016.7mb 40f 42f
9:30 13 14 mph 1016.6mb 40f 42f
9:24 11 13 mph 1016.5mb 40f 42f
9:18 10 11 mph 1016.5mb 40f 42f
9:12 9 10 mph 1016.6mb 40f 42f
9:06 9 10 mph 1016.6mb 40f 42f
9:00 8 10 mph 1016.5mb 40f 43f
8:54 8
mph
1016.6mb 40f 42f
8:48 7 8 mph 1016.5mb 40f 42f
8:42 7 8 mph 1016.3mb 40f 42f
8:36 8 10 mph 1016.4mb 40f 43f
8:30 7 8 mph 1016.4mb 40f 43f
7:00 6
mph
1015.4mb 41f 42f
6:54 6 8 mph 1015.6mb 41f 42f
6:48 7 8 mph - - -
6:42 6
mph
1015.7mb 41f 42f
6:36 5
mph
1015.7mb 41f 43f
6:30 5 6 mph 1015.7mb 41f 43f
6:24 6
mph
1015.5mb 41f 42f
6:18 6 7 mph 1015.2mb 41f 42f
6:12 7
mph
1015mb 41f 42f
6:06 6
mph
1015mb 41f 42f
6:00 5
mph
1014.8mb 41f 43f
5:54 5
mph
1014.7mb 41f 43f
5:48 3 5 mph 1014.6mb 41f 42f
5:42 6
mph
1014.5mb 41f 43f
5:36 6
mph
1014.4mb 41f 43f
5:30 6 7 mph 1014.4mb 41f 43f
5:24 5 6 mph 1014.3mb 41f 43f
5:18 6 7 mph 1014.2mb 41f 43f
5:12 6 7 mph 1014.2mb 41f 43f
5:06 6 8 mph 1014.1mb 41f 43f
5:00 6 8 mph 1014mb 41f 43f
4:54 8 9 mph 1014mb 41f 43f
4:48 7 9 mph 1014mb 41f 43f
4:42 8 10 mph 1014mb 41f 43f
4:36 7 9 mph 1013.9mb 41f 43f
4:30 7 10 mph 1013.9mb 41f 43f
4:24 8 10 mph 1013.9mb 41f 43f
4:18 10 13 mph 1013.9mb 41f 43f
4:12 9 10 mph 1013.9mb 41f 43f
4:06 10 11 mph 1013.8mb 41f 43f
4:00 11 15 mph 1013.9mb 41f 44f
3:54 13 14 mph 1013.8mb 41f 44f
3:48 14 15 mph 1013.8mb 41f 44f
3:42 11 14 mph 1013.8mb 41f 44f
3:36 11 13 mph 1013.8mb 41f 44f
3:30 8 9 mph 1013.8mb 41f 44f
3:24 7 9 mph 1013.9mb 40f 44f
3:18 8 10 mph 1013.9mb 40f 44f
3:12 9 10 mph 1013.8mb 40f 44f
3:06 10
mph
1013.7mb 40f 44f
3:00 7 8 mph 1013.7mb 40f 44f
2:54 5 6 mph 1013.6mb 40f 44f
2:48 6 7 mph 1013.6mb 40f 44f
2:42 6
mph
1013.5mb 40f 44f
2:36 6 7 mph 1013.5mb 40f 44f
2:30 5 9 mph 1013.6mb 40f 45f
2:24 6 7 mph 1013.5mb 40f 45f
2:18 6 8 mph 1013.6mb 40f 45f
2:12 8 10 mph 1013.5mb 40f 44f
2:06 8 11 mph 1013.6mb 40f 44f
2:00 9 13 mph 1013.6mb 40f 44f
1:54 10 13 mph 1013.5mb 40f 44f
1:48 11 14 mph 1013.5mb 40f 45f
1:42 9 11 mph 1013.5mb 40f 44f
1:36 10 14 mph 1013.5mb 40f 44f
1:30 14 15 mph 1013.6mb 40f 43f
1:24 10 11 mph 1013.7mb 40f 44f
1:18 9 10 mph 1013.7mb 40f 44f
1:12 10 14 mph 1013.8mb 40f 44f
1:06 14 16 mph 1013.7mb 40f 44f
1:00 14 15 mph 1013.7mb 40f 43f
12:54 14
mph
1013.7mb 40f 43f
12:48 13 14 mph 1013.6mb 40f 44f
12:42 11 15 mph 1013.7mb 40f 45f
12:36 11 14 mph 1013.7mb 40f 44f
12:30 13 15 mph 1013.8mb 40f 44f
12:24 14 15 mph 1013.8mb 40f 44f
12:18 8 10 mph 1013.9mb 40f 44f
12:12 6 8 mph 1014mb 40f 44f
12:06 6 7 mph 1014.1mb 40f 43f
12:00 5 6 mph 1014.3mb 40f 43f
11:54 3 5 mph 1014.4mb 40f 42f
11:48 1 2 mph 1014.6mb 40f 41f
11:42  -  1 mph 1014.6mb 40f 40f
11:36  -  1 mph 1014.8mb 40f 40f
11:30 1 2 mph 1014.9mb 40f 40f
11:24 2 3 mph 1015mb 40f 40f
11:18 3
mph
1015.1mb 40f 40f
11:12 2 3 mph 1015.2mb 40f 40f
11:06 2 3 mph 1015.3mb 40f 39f
11:00 2 3 mph 1015.5mb 40f 39f
10:54 2 3 mph 1015.6mb 40f 40f
10:48 1 2 mph 1015.8mb 40f 40f
10:42 2 3 mph 1015.8mb 40f 38f
10:36 2 5 mph 1015.9mb 40f 38f
10:30 5
mph
1015.8mb 40f 38f
10:24 5 6 mph 1015.8mb 40f 38f
10:18 5 7 mph 1015.8mb 40f 38f
10:12 6 7 mph 1015.8mb 40f 37f
10:06 7
mph
1015.8mb 40f 37f
10:00 6 8 mph 1015.9mb 40f 37f
9:54 7
mph
1015.9mb 40f 37f
9:48 6 7 mph 1016mb 40f 37f
9:42 6 7 mph 1016mb 39f 37f
9:36 6
mph
1016mb 39f 37f
9:30 6
mph
1016mb 39f 37f
9:24 5 6 mph 1016mb 39f 36f
9:18 6
mph
1016mb 39f 37f
9:12 5
mph
1016mb 39f 37f
9:06 3
mph
1016mb 39f 37f
9:00 3
mph
1016mb 39f 37f
8:54 2
mph
1016mb 39f 38f
8:48 2
mph
1016.1mb 39f 38f
8:42 2
mph
1016mb 39f 38f
8:36 2
mph
1015.9mb 39f 38f
8:30 2
mph
1015.9mb 39f 38f
8:24 2
mph
1015.8mb 39f 38f
8:18  -  1 mph 1015.9mb 39f 38f
8:12  -  1 mph 1015.8mb 39f 36f
8:06 1 2 mph 1015.9mb 40f 35f
8:00  -  1 mph 1015.8mb 40f 35f
7:54  -  1 mph 1015.8mb 40f 35f
7:48 1 2 mph 1015.8mb 40f 35f
7:42 1
mph
1015.9mb 40f 35f
7:36 1 2 mph 1015.9mb 40f 35f
7:30 1 2 mph 1015.9mb 40f 35f
7:24 2
mph
1015.9mb 40f 35f
7:18 2
mph
1015.8mb 40f 34f
7:12  -  1 mph 1015.8mb 40f 35f
7:06  -  2 mph 1015.9mb 40f 35f
7:00 2 6 mph 1016mb 39f 35f
6:54 5 6 mph 1016.1mb 39f 35f
6:48 2 3 mph 1016.1mb 39f 35f
6:42 2 3 mph 1016mb 39f 35f
6:36 3
mph
1016mb 39f 35f
6:30 2
mph
1015.9mb 39f 35f
6:24 3 5 mph 1015.8mb 39f 35f
6:18 5 6 mph 1015.9mb 39f 35f
6:12 5 6 mph 1016mb 39f 35f
6:06 5 6 mph 1016mb 39f 35f
6:00 6
mph
1016mb 39f 34f
5:54 5 6 mph 1016mb 39f 34f
5:48 5
mph
1015.9mb 39f 34f
5:42 5 6 mph 1015.8mb 39f 34f
5:36 6 7 mph 1015.8mb 39f 34f
5:30 6 7 mph 1015.8mb 39f 34f
5:24 5 6 mph 1015.8mb 39f 34f
5:18 5 6 mph 1015.7mb 39f 34f
5:12 5 7 mph 1015.7mb 39f 34f
5:06 5 6 mph 1015.7mb 39f 34f
5:00 3 5 mph 1015.7mb 39f 34f
4:54 5 6 mph 1015.8mb 39f 35f
4:48 5 6 mph 1015.9mb 39f 35f
4:42 6 7 mph 1015.8mb 39f 35f
4:36 7 8 mph 1015.9mb 39f 35f
4:30 7 8 mph 1015.8mb 39f 35f
4:24 6
mph
1015.6mb 39f 35f
4:18 6 7 mph 1015.5mb 39f 35f
4:12 6 8 mph 1015.5mb 39f 35f
4:06 7 9 mph 1015.7mb 39f 35f
4:00 8 10 mph 1015.7mb 39f 35f
3:54 8 9 mph 1015.8mb 39f 35f
3:48 8 9 mph 1015.7mb 39f 35f
3:42 8 10 mph 1015.8mb 39f 35f
3:36 9 10 mph 1015.9mb 39f 35f
3:30 7 8 mph 1015.8mb 39f 35f
3:24 7 8 mph 1015.9mb 39f 35f
3:18 7 8 mph 1015.9mb 39f 35f
3:12 7 9 mph 1015.9mb 39f 35f
3:06 7 9 mph 1016mb 39f 35f
3:00 8 10 mph 1016mb 39f 35f
2:54 10 11 mph 1016.1mb 39f 35f
2:48 9 10 mph 1016.1mb 39f 35f
2:42 9 10 mph 1016mb 39f 35f
2:36 8 9 mph 1015.9mb 39f 34f
2:30 7 8 mph 1015.7mb 39f 35f
2:24 6 7 mph 1015.8mb 39f 35f
2:18 8 9 mph 1015.8mb 39f 35f
2:12 6 8 mph 1015.9mb 39f 35f
2:06 8
mph
1015.9mb 39f 35f
2:00 7 9 mph 1015.8mb 39f 35f
1:54 8 11 mph 1015.9mb 39f 35f
1:48 10 13 mph 1015.9mb 39f 35f
1:42 11 13 mph 1015.9mb 39f 35f
1:36 11 13 mph 1015.8mb 39f 35f
1:30 10 13 mph 1015.8mb 39f 35f
1:24 11 14 mph 1015.8mb 39f 35f
1:18 13 14 mph 1015.7mb 39f 35f
1:12 13 14 mph 1015.8mb 39f 35f
1:06 13 14 mph 1015.7mb 39f 35f
1:00 13 14 mph 1015.7mb 39f 35f
12:54 14 15 mph 1015.7mb 39f 35f
12:48 14 15 mph 1015.7mb - -
12:42 13 14 mph 1015.5mb - -
12:36 11 14 mph 1015.4mb - -
12:30 14
mph
1015.5mb 39f 35f
12:24 10 11 mph 1015.3mb 39f 35f
12:18 9 11 mph 1015.2mb 39f 35f
12:12 10 11 mph 1015.3mb 39f 35f
12:06 10 13 mph 1015.4mb 39f 35f
12:00 11
mph
1015.5mb 39f 35f
mié 01/18 11:54 11 14 mph 1015.7mb 39f 35f
11:48 13 14 mph 1015.6mb 40f 35f
11:42 14 15 mph 1015.6mb 40f 35f
11:36 14 15 mph 1015.8mb 40f 35f
11:30 14 17 mph 1015.9mb 40f 35f
11:24 16 18 mph 1015.8mb 40f 35f
11:18 15 16 mph 1015.9mb 40f 35f
11:12 15 17 mph 1015.8mb 40f 35f
11:06 16 17 mph 1015.7mb 40f 35f
11:00 14 16 mph 1015.7mb 40f 35f
10:54 14 15 mph 1015.6mb 40f 35f
10:48 11 13 mph 1015.4mb 40f 35f
10:42 10 11 mph 1015.4mb 39f 35f
10:36 8
mph
1015.1mb 39f 35f
10:30 7 9 mph 1015mb 39f 35f
10:24 9 10 mph 1015.2mb 39f 35f
10:18 10 13 mph 1015.3mb 39f 35f
10:12 11 13 mph 1015.4mb 39f 35f
10:06 10 14 mph 1015.4mb 39f 35f
10:00 11 14 mph 1015.6mb 39f 35f
9:54 11 13 mph 1015.7mb 39f 35f
9:48 10 11 mph 1015.6mb 39f 35f
9:42 9 11 mph 1015.5mb 39f 35f
9:36 10 11 mph 1015.6mb 39f 35f
9:30 10 13 mph 1015.8mb 39f 35f
9:24 11 13 mph 1016mb 39f 35f
9:18 10 14 mph 1016mb 39f 36f
9:12 11 15 mph 1016.1mb 40f 35f
9:06 14 15 mph 1016.2mb 40f 36f
9:00 14 16 mph 1016.3mb 40f 36f
8:54 14 15 mph 1016.3mb 40f 36f
8:48 14 15 mph 1016.5mb 40f 36f
8:42 13 14 mph 1016.5mb 40f 36f
8:36 13 14 mph 1016.6mb 40f 36f
8:30 13 15 mph 1016.5mb 40f 36f
8:24 14 15 mph 1016.5mb 40f 36f
8:18 14 15 mph 1016.5mb 40f 36f
8:12 11 15 mph 1016.5mb 40f 36f
8:06 14 15 mph 1016.4mb 40f 36f
8:00 14 16 mph 1016.3mb 40f 36f
7:54 15 16 mph 1016.3mb 40f 36f
7:48 13 16 mph 1016.3mb 40f 37f
7:42 15 16 mph 1016.3mb 40f 37f
7:36 15 17 mph 1016.2mb 40f 37f
7:30 15 17 mph 1016.3mb 40f 37f
7:24 15 17 mph 1016.4mb 40f 37f
7:18 15 20 mph - - -
7:12 18 20 mph 1016.2mb 40f 37f
7:06 17 20 mph 1016.1mb 40f 37f
7:00 9 10 mph 1016.1mb 40f 39f
6:54 9 11 mph 1016mb 40f 39f
6:48 9 11 mph 1016.2mb 40f 39f
6:42 10 13 mph 1016.1mb 40f 39f
6:36 9 11 mph 1016mb 40f 39f
6:30 9 13 mph 1015.9mb 39f 39f
6:24 9 11 mph 1015.8mb 39f 39f
6:18 9 11 mph 1015.7mb 39f 39f
6:12 9 11 mph 1015.6mb 39f 39f
6:06 10 11 mph 1015.7mb 39f 39f
6:00 10 11 mph 1015.7mb 39f 39f
5:54 10 13 mph 1015.5mb 39f 39f
5:48 8 11 mph 1015.5mb 39f 39f
5:42 9 13 mph 1015.5mb 39f 39f
5:36 9 13 mph 1015.3mb 39f 39f
5:30 10 13 mph 1015.2mb 39f 39f
5:24 9 14 mph 1015.1mb 39f 40f
5:18 11 14 mph 1015mb 39f 40f
5:12 13 14 mph 1014.9mb 39f 40f
5:06 9 14 mph 1014.7mb 39f 40f
5:00 9 13 mph 1014.6mb 39f 40f
4:54 10 14 mph 1014.6mb 39f 40f
4:48 10 11 mph - - -
4:42 10 15 mph 1014.4mb 39f 40f
4:36 9 15 mph 1014.4mb 39f 40f
4:30 8 11 mph 1014.2mb 39f 40f
4:24 8 11 mph 1014.2mb 39f 40f
4:18 10 13 mph 1014.2mb 39f 40f
4:12 9 14 mph 1014.2mb 39f 40f
4:06 9 11 mph 1014.1mb 39f 40f
4:00 11 14 mph 1014mb 39f 40f
3:54 10 13 mph 1014mb 39f 40f
3:48 9 11 mph 1014mb 39f 40f
3:42 9 11 mph 1014mb 39f 40f
3:36 13 14 mph 1014mb 39f 40f
3:30 9 13 mph 1014mb 39f 40f
3:24 9 13 mph 1014mb 39f 40f
3:18 11 14 mph 1014.1mb 39f 40f
3:12 11 13 mph 1014.1mb 39f 40f
3:06 10 14 mph 1013.8mb 39f 40f
3:00 11 14 mph 1013.7mb 39f 40f
2:54 10 15 mph 1013.8mb 39f 40f
2:48 10 14 mph 1013.9mb 39f 40f
2:42 13 15 mph 1013.8mb 39f 40f
2:36 11 14 mph 1013.8mb 39f 40f
2:30 13 17 mph 1013.6mb 39f 40f
2:24 11 14 mph 1013.5mb 39f 40f
2:18 13 15 mph 1013.3mb 39f 40f
2:12 11 15 mph 1013.1mb 39f 40f
2:06 13 15 mph 1013mb 39f 40f
2:00 11 16 mph 1012.9mb 39f 40f
1:54 11 15 mph 1012.8mb 39f 40f
1:48 11 16 mph 1012.7mb 39f 40f
1:42 13 15 mph 1012.5mb 39f 40f
1:36 11 15 mph 1012.4mb 39f 40f
1:30 11 16 mph 1012.4mb 39f 40f
1:24 14 17 mph 1012.3mb 39f 40f
1:18 9 14 mph 1012.4mb 39f 40f
1:12 10 14 mph 1012.3mb 39f 40f
1:06 10 14 mph 1012.2mb 39f 40f
1:00 11 15 mph 1012.3mb 39f 40f
12:54 11 15 mph 1012.3mb 39f 40f
12:48 10 13 mph 1012.4mb 39f 40f
12:42 9 11 mph 1012.4mb 39f 40f
12:36 10 14 mph 1012.4mb 39f 40f
12:30 10 14 mph 1012.4mb 39f 39f
12:24 9 15 mph 1012.3mb 39f 39f
12:18 13 16 mph 1012.3mb 39f 39f
12:12 10 14 mph 1012.5mb 39f 39f
12:06 10 13 mph 1012.5mb 39f 39f
12:00 11 14 mph 1012.4mb 39f 39f
11:54 10 13 mph 1012.5mb 39f 39f
11:48 10 14 mph 1012.6mb 39f 39f
11:42 9 13 mph 1012.7mb 39f 39f
11:36 10 14 mph 1012.8mb 39f 38f
11:30 10 11 mph 1012.9mb 39f 38f
11:24 10 13 mph 1013.1mb 39f 38f
11:18 9 10 mph 1013.1mb 39f 38f
11:12 9 14 mph 1013.2mb 39f 38f
11:06 9 11 mph 1013.2mb 39f 38f
11:00 9 10 mph 1013.5mb 39f 38f
10:54 9 13 mph 1013.7mb 39f 38f
10:48 9 11 mph 1013.8mb 39f 38f
10:42 10 14 mph 1013.9mb 39f 38f
10:36 10 13 mph 1014mb 39f 38f
10:30 9 13 mph 1014.1mb 39f 38f
10:24 8 11 mph 1014.2mb 39f 38f
10:18 9 13 mph 1014.2mb 39f 38f
10:12 10 13 mph 1014.3mb 39f 38f
10:06 9 13 mph 1014.3mb 39f 38f
10:00 10 14 mph 1014.3mb 39f 38f
9:54 13 15 mph 1014.4mb 39f 38f
9:48 9 13 mph 1014.4mb 39f 38f
9:42 9 13 mph 1014.4mb 39f 38f
9:36 9 13 mph 1014.4mb 39f 38f
9:30 11 14 mph 1014.4mb 39f 38f
9:24 13 15 mph 1014.4mb 39f 37f
9:18 11 14 mph 1014.3mb 39f 37f
9:12 10 14 mph 1014.2mb 39f 37f
9:06 10 13 mph 1014.1mb 39f 37f
9:00 11 13 mph 1014.1mb 39f 37f
8:54 10 13 mph 1014mb 39f 37f
8:48 8 13 mph 1013.9mb 39f 37f
8:42 11 14 mph 1013.8mb 39f 37f
8:36 11 14 mph 1013.8mb 39f 37f
8:30 8 11 mph 1013.8mb 39f 37f
8:24 9 11 mph 1013.8mb 39f 37f
8:18 10 13 mph 1013.8mb 39f 37f
8:12 11 14 mph 1013.7mb 39f 37f
8:06 10 13 mph 1013.7mb 39f 37f
8:00 10 13 mph 1013.8mb 39f 37f
7:54 10 14 mph 1013.8mb 39f 37f
7:48 10 14 mph 1013.7mb 39f 37f
7:42 10 13 mph 1013.7mb 39f 37f
7:36 9 13 mph 1013.7mb 39f 37f
7:30 9 13 mph 1013.6mb - -
7:24 11 14 mph 1013.5mb 39f 37f
7:18 10 14 mph 1013.5mb 39f 37f
7:12 9 11 mph 1013.5mb 39f 37f
7:06 9 14 mph 1013.6mb 39f 37f
7:00 9 11 mph 1013.6mb 39f 37f
6:54 10 11 mph 1013.8mb 39f 38f
6:48 10 11 mph 1013.8mb 39f 38f
6:42 9 11 mph 1013.9mb 39f 38f
6:36 9 13 mph 1014mb 39f 38f
6:30 9 14 mph - - -
6:24 8 10 mph 1013.9mb 39f 38f
6:18 9 14 mph 1014mb 39f 38f
6:12 10 14 mph 1014mb 39f 38f
6:06 10 14 mph 1013.9mb 39f 38f
6:00 13 15 mph 1013.8mb 39f 38f
5:54 9 11 mph 1013.9mb 39f 38f
5:48 9 10 mph 1014mb 39f 38f
5:42 8 13 mph 1014.2mb 39f 38f
5:36 8 11 mph 1014.2mb 39f 38f
5:30 8 11 mph 1014mb 39f 38f
5:24 9 13 mph 1013.9mb 39f 38f
5:18 9 11 mph 1013.9mb 39f 38f
5:12 10 13 mph 1013.9mb 39f 38f
5:06 10 16 mph 1013.8mb 38f 38f
5:00 14 16 mph 1013.4mb 38f 38f
4:54 9 13 mph 1013.9mb 38f 38f
4:48 7 10 mph 1014mb 38f 38f
4:42 6 13 mph 1014mb 38f 38f
4:36 8 11 mph 1014mb 38f 38f
4:30 9 14 mph 1013.8mb 38f 38f
4:24 14 16 mph 1013.5mb 38f 38f
4:18 14 15 mph 1013.5mb 38f 38f
4:12 11 14 mph 1013.7mb 38f 38f
4:06 10 11 mph 1014mb 38f 38f
4:00 10 14 mph 1014.1mb 38f 38f
3:54 9 13 mph 1014.1mb 38f 38f
3:48 8 11 mph 1014.3mb 38f 38f
3:42 8 10 mph 1014.3mb 38f 38f
3:36 8 10 mph 1014.4mb 38f 38f
3:30 8 11 mph 1014.4mb - -
3:24 9 10 mph 1014.5mb 38f 38f
3:18 9 11 mph 1014.6mb 38f 38f
3:12 7 9 mph 1014.7mb 38f 38f
3:06 8 10 mph 1014.7mb 38f 38f
3:00 8 10 mph 1014.8mb 38f 38f
2:54 9 15 mph 1014.9mb 38f 38f
2:48 11 14 mph 1014.9mb 38f 38f
2:42 9 14 mph 1015mb 38f 38f
2:36 8 15 mph 1015.1mb 38f 38f
2:30 9 11 mph 1015.3mb 38f 38f
2:24 9 11 mph 1015.4mb 38f 38f
2:18 9 11 mph 1015.4mb 39f 38f
2:12 10 11 mph 1015.6mb 39f 38f
2:06 8 10 mph 1015.8mb 39f 38f
2:00 7 11 mph 1015.9mb 39f 38f
1:54 10 13 mph 1015.8mb 39f 38f
1:48 11 14 mph 1015.9mb 39f 38f
1:42 13 15 mph 1015.9mb 39f 39f
1:36 11 15 mph 1015.9mb 39f 39f
1:30 13 15 mph 1016mb 39f 39f
1:24 14 16 mph 1015.9mb 39f 39f
1:18 11 15 mph 1016mb 39f 39f
1:12 11 13 mph 1016.3mb 39f 39f
1:06 13 15 mph 1016.2mb 39f 39f
1:00 11 13 mph 1016.2mb 39f 39f
12:54 13 16 mph 1016.2mb 39f 39f
12:48 11 14 mph 1016.2mb 39f 38f
12:42 11 15 mph 1016.4mb 39f 38f
12:36 11 14 mph 1016.5mb 39f 38f
12:30 13 14 mph 1016.6mb 39f 38f
12:24 13 15 mph 1016.7mb 39f 38f
12:18 14 15 mph 1016.8mb 39f 38f
12:12 11 14 mph 1017.1mb 39f 38f
12:06 13 14 mph 1017.2mb 39f 38f
12:00 13 14 mph 1017.4mb 39f 39f
mar 01/17 11:54 10 11 mph 1017.6mb 39f 39f
11:48 10 11 mph 1017.7mb 39f 39f
11:42 10 13 mph 1017.9mb 39f 39f
11:36 9 11 mph 1018mb 39f 39f
11:30 10 16 mph 1018.1mb 39f 39f
11:24 11 14 mph 1018mb 39f 39f
11:18 14 15 mph 1017.9mb 39f 39f
11:12 14 15 mph 1017.9mb 39f 39f
11:06 13 15 mph 1017.9mb 39f 39f
11:00 14 16 mph 1017.9mb 39f 39f
10:54 14 16 mph 1018.1mb 39f 39f
10:48 15 16 mph 1018.3mb 39f 39f
10:42 14 17 mph 1018.4mb 39f 39f
10:36 13 18 mph 1018.4mb 39f 39f
10:30 15 17 mph 1018.3mb 39f 39f
10:24 11 14 mph 1018.5mb 39f 39f
10:18 11 14 mph 1018.5mb 39f 39f
10:12 14 16 mph 1018.5mb 39f 39f
10:06 13 17 mph 1018.6mb 39f 39f
10:00 14 20 mph 1018.4mb 39f 38f
9:54 15 17 mph 1018.3mb 39f 38f
9:48 14 18 mph 1018.8mb 39f 38f
9:42 16 21 mph 1018.9mb 39f 38f
9:36 20 22 mph 1018.6mb 39f 38f
9:30 14 16 mph 1019.2mb 39f 38f
9:24 13 15 mph 1019.6mb 39f 38f
9:18 14 18 mph 1019.3mb 39f 38f
9:12 14 15 mph 1019.3mb 39f 38f
9:06 10 14 mph 1019.3mb 39f 38f
9:00 13 14 mph 1019.3mb 39f 38f
8:54 11 16 mph 1019.7mb 39f 38f
8:48 14 15 mph 1019.3mb 39f 38f
8:42 11 14 mph 1019.9mb 39f 38f
8:36 8 10 mph 1020.3mb 39f 38f
8:30 8 11 mph 1020.3mb 38f 38f
8:24 10 11 mph 1020mb 38f 38f
8:18 9 10 mph 1020.1mb 38f 38f
8:12 8 10 mph 1020.4mb 38f 38f
8:06 7 8 mph 1020.6mb 38f 37f
8:00 7 8 mph 1020.5mb 38f 37f
7:54 8 9 mph 1020.5mb 38f 37f
7:48 6 7 mph 1020.6mb 38f 37f
7:42 6 7 mph 1020.8mb 38f 38f
7:36 5 6 mph 1020.9mb 38f 38f
7:30 3 6 mph 1021.1mb 38f 38f
7:24 6 7 mph 1021mb 38f 38f
7:18 5 8 mph 1021.1mb 38f 38f
7:12 7 9 mph 1020.8mb 38f 38f
7:06 8 9 mph 1020.7mb 38f 38f
7:00 9 10 mph 1020.6mb 38f 38f
6:54 8 10 mph 1020.6mb 38f 38f
6:48 10 11 mph 1020.5mb 38f 38f
6:42 10 13 mph 1020.6mb 38f 38f
6:36 10 13 mph 1020.7mb 38f 38f
6:30 11 13 mph 1020.7mb 38f 39f
6:24 10 11 mph 1020.8mb 38f 39f
6:18 9 10 mph 1020.9mb 39f 39f
6:12 8 11 mph 1021mb 39f 39f
6:06 8 10 mph 1020.9mb 38f 39f
6:00 8 10 mph 1021.1mb 38f 39f
5:54 8 11 mph 1021.1mb 38f 39f
5:48 9 10 mph 1021.1mb 38f 39f
5:42 9 11 mph 1021mb 38f 39f
5:36 10 11 mph 1020.9mb 38f 40f
5:30 10 11 mph 1020.8mb 38f 40f
5:24 11 14 mph 1020.8mb 38f 40f
5:18 9 10 mph 1020.9mb 38f 39f
5:12 9
mph
1020.9mb 38f 39f
5:06 8
mph
1021mb 38f 39f
5:00 8
mph
1021mb 38f 39f
4:54 7 8 mph 1021.2mb 38f 40f
4:48 7
mph
1021.4mb 38f 40f
4:42 6
mph
1021.3mb 38f 40f
4:36 6
mph
1021.5mb 38f 40f
4:30 6 7 mph 1021.5mb 38f 40f
4:24 6 7 mph 1021.4mb 38f 40f
4:18 7
mph
1021.4mb 38f 40f
4:12 7 8 mph 1021.4mb 38f 40f
4:06 7 8 mph 1021.4mb 38f 40f
4:00 7 8 mph 1021.4mb 38f 40f
3:54 7 8 mph 1021.4mb 38f 40f
3:48 7 9 mph 1021.4mb 38f 41f
3:42 7 10 mph 1021.3mb 38f 41f
3:36 9 10 mph 1021.2mb 38f 41f
3:30 9 10 mph 1021.1mb 38f 41f
3:24 3 5 mph 1021.2mb 38f 40f
3:18 2 6 mph 1021.2mb 38f 40f
3:12 2 3 mph 1021.3mb 38f 40f
3:06 1 2 mph 1021.3mb 38f 39f
3:00  -  1 mph 1021.4mb 38f 39f
2:54 1 3 mph 1021.3mb 38f 40f
2:48 2 5 mph 1021.4mb 38f 39f
2:42 3 5 mph 1021.5mb 38f 39f
2:36 3 7 mph 1021.5mb 38f 40f
2:30 6 7 mph 1021.5mb 38f 40f
2:24 7 8 mph 1021.6mb 38f 41f
2:18 6
mph
1021.7mb 38f 40f
2:12 6 7 mph 1021.6mb 38f 41f
2:06 7 8 mph 1021.6mb 38f 41f
2:00 5 6 mph 1021.7mb 38f 41f
1:54 5 7 mph 1021.7mb 38f 41f
1:48 6 7 mph 1021.8mb 38f 41f
1:42 3 5 mph 1021.8mb 38f 41f
1:36 3 6 mph 1021.8mb 38f 41f
1:30 3 5 mph 1021.9mb 38f 41f
1:24 3 5 mph 1021.9mb 38f 41f
1:18 5 6 mph 1021.9mb 38f 41f
1:12 5 7 mph 1021.9mb 38f 41f
1:06 6 7 mph 1022mb 38f 41f
1:00 6 7 mph 1022mb 38f 41f
12:54 6 7 mph 1022mb 38f 41f
12:48 7 9 mph 1022.2mb 38f 41f
12:42 8 9 mph 1022.2mb 38f 41f
12:36 6 9 mph 1022.3mb 38f 41f
12:30 8 10 mph 1022.3mb 38f 41f
12:24 9 11 mph 1022.4mb 38f 40f
12:18 8 10 mph 1022.5mb 38f 40f
12:12 6 8 mph 1022.7mb 38f 40f
12:06 5 7 mph 1022.7mb 38f 41f
12:00 5 7 mph 1022.9mb 38f 39f
11:54 6 7 mph 1023mb 38f 38f
11:48 6 10 mph 1023mb 38f 38f
11:42 5 9 mph 1023.1mb 38f 38f
11:36 7 9 mph 1023.1mb 38f 38f
11:30 6 7 mph 1023.2mb 38f 37f
11:24 6 8 mph 1023.2mb 38f 37f
11:18 6 8 mph 1023.3mb 38f 37f
11:12 6 7 mph 1023.3mb 38f 37f
11:06 3 5 mph 1023.4mb 38f 37f
11:00 3
mph
1023.4mb 38f 37f
10:54 2 3 mph 1023.7mb 38f 37f
10:48 2 3 mph 1023.8mb 38f 37f
10:42 3 5 mph 1023.9mb 38f 36f
10:36 3 5 mph 1023.9mb 38f 36f
10:30 3 6 mph 1024mb 38f 36f
10:24 5
mph
1023.9mb 38f 36f
10:18 5 6 mph 1023.9mb 38f 36f
10:12 5
mph
1024mb 38f 35f
10:06 5
mph
1024.1mb 38f 35f
10:00 5 6 mph 1024.3mb 38f 35f
9:54 6
mph
1024.2mb 38f 35f
9:48 6
mph
1024.3mb 38f 35f
9:42 6
mph
1024.4mb 38f 35f
9:36 5
mph
1024.4mb 38f 35f
9:30 5
mph
1024.4mb 38f 35f
9:24 5
mph
1024.3mb 38f 35f
9:18 5
mph
1024.2mb 38f 35f
9:12 5 6 mph 1024.3mb 38f 35f
9:06 5 6 mph 1024.2mb 38f 35f
9:00 6
mph
1024.1mb 38f 35f
8:54 5 6 mph 1024.1mb 38f 35f
8:48 5
mph
1024.2mb 38f 35f
8:42 5 6 mph 1024.2mb 38f 34f
8:36 6
mph
1024.1mb 38f 34f
8:30 5
mph
1024.1mb 38f 34f
8:24 3
mph
1024.1mb 38f 34f
8:18 2 3 mph 1024.1mb 38f 34f
8:12 1
mph
1023.9mb 38f 35f
8:06  -  1 mph 1023.7mb 38f 35f
8:00 1 2 mph 1023.6mb 38f 35f
7:54 2 3 mph 1023.4mb 38f 35f
7:48 3
mph
1023.3mb 38f 35f
7:42 3 5 mph 1023.3mb 38f 35f
7:36 5
mph
1023.3mb 38f 35f
7:30 2 5 mph 1023.1mb 38f 35f
7:24 5 6 mph 1023.1mb 38f 35f
7:18 2 5 mph 1023.1mb 38f 35f
7:12 3
mph
1023.1mb 38f 35f
7:06 2 3 mph 1023mb 38f 35f
7:00 3 5 mph 1023mb 38f 35f
6:54 5
mph
1022.8mb 38f 35f
6:48 5 7 mph 1022.8mb 38f 35f
6:42 7 8 mph 1023mb 39f 35f
6:36 8 10 mph 1023.1mb 39f 35f
6:30 9 10 mph 1023mb 39f 35f
6:24 7 8 mph 1022.8mb 39f 35f
6:18 6
mph
1022.6mb 38f 35f
6:12 5 6 mph 1022.7mb 38f 35f
6:06 5 6 mph 1022.7mb 38f 35f
6:00 5
mph
1022.9mb 38f 35f
5:54 2 3 mph 1022.8mb 38f 35f
5:48 2 3 mph 1022.7mb 38f 35f
5:42 2 3 mph 1022.6mb 38f 35f
5:36 2 5 mph 1022.7mb 38f 35f
5:30 3 5 mph 1022.7mb 38f 35f
5:24 5
mph
1022.7mb 38f 35f
5:18 5 6 mph 1022.6mb 38f 35f
5:12 5 6 mph 1022.6mb 38f 35f
5:06 5 7 mph 1022.5mb 38f 35f
5:00 5 6 mph 1022.5mb 38f 35f
4:54 5 6 mph 1022.6mb 38f 35f
4:48 3 6 mph 1022.6mb 38f 35f
4:42 5 7 mph 1022.6mb 38f 35f
4:36 6 9 mph 1022.6mb 38f 36f
4:30 7 8 mph 1022.6mb 38f 35f
4:24 7 8 mph 1022.6mb 38f 35f
4:18 6 8 mph 1022.6mb 38f 35f
4:12 7 9 mph 1022.7mb 38f 35f
4:06 8 10 mph 1022.7mb 38f 35f
4:00 7 9 mph 1022.8mb 38f 35f
3:54 8 9 mph 1022.7mb 38f 35f
3:48 8 9 mph 1022.6mb 38f 36f
3:42 9 10 mph 1022.6mb 38f 36f
3:36 9 10 mph 1022.6mb 38f 36f
3:30 9 10 mph 1022.7mb 38f 36f
3:24 9 10 mph 1022.8mb 38f 36f
3:18 9 10 mph 1022.8mb 38f 36f
3:12 9 13 mph 1022.8mb 38f 36f
3:06 11 14 mph 1022.9mb 38f 36f
3:00 13 14 mph 1022.9mb 38f 36f
2:54 10
mph
1023mb 38f 36f
2:48 7 8 mph 1023mb 38f 36f
2:42 7 8 mph 1023.1mb 38f 36f
2:36 7 8 mph 1023.1mb 38f 36f
2:30 7 8 mph 1023.2mb 38f 36f
2:24 7
mph
1023.1mb 38f 36f
2:18 6 8 mph 1023mb 38f 36f
2:12 7 8 mph 1023.1mb 38f 36f
2:06 7 9 mph 1023.2mb 38f 36f
2:00 8 10 mph 1023.3mb 38f 36f
1:54 8 10 mph 1023.2mb 38f 36f
1:48 8 10 mph 1023.3mb - -
1:42 8 9 mph 1023.3mb - -
1:36 6 8 mph 1023.3mb - -
1:30 6 7 mph 1023.3mb 38f 36f
1:24 7 9 mph 1023.3mb 38f 36f
1:18 7 9 mph 1023.4mb 38f 36f
1:12 8 9 mph 1023.4mb 38f 36f
1:06 7 8 mph 1023.4mb 38f 36f
1:00 7 8 mph 1023.3mb 39f 36f
12:54 6 8 mph 1023.4mb 39f 36f
12:48 6 7 mph - - -
12:42 5 7 mph - - -
12:36 3 5 mph - - -
12:30 3 5 mph 1023.7mb 39f 35f
12:24 3 6 mph 1023.8mb 39f 36f
12:18 5
mph
1024mb 39f 36f
12:12 2 6 mph 1024mb 39f 36f
12:06 3 5 mph 1024.1mb 39f 36f
12:00 3 6 mph 1024.1mb 39f 36f
lun 01/16 11:54 5 7 mph 1024.1mb 39f 36f
11:48 5 7 mph 1024.2mb 39f 36f
11:42 6 7 mph 1024.3mb 39f 36f
11:36 7 8 mph 1024.4mb 39f 36f
11:30 7 9 mph 1024.5mb 39f 36f
11:24 8 9 mph 1024.4mb 39f 36f
11:18 8 9 mph 1024.4mb 39f 36f
11:12 7 10 mph 1024.6mb 39f 36f
11:06 8 9 mph 1024.6mb 39f 36f
11:00 9 10 mph 1024.7mb 39f 36f
10:54 8 9 mph 1024.7mb 39f 36f
10:48 8 9 mph 1024.8mb 39f 35f
10:42 8 9 mph 1024.9mb 39f 35f
10:36 8 9 mph 1025mb 39f 35f
10:30 8 9 mph 1025mb 39f 35f
10:24 8 9 mph 1025mb 39f 35f
10:18 8 10 mph 1025mb 39f 35f
10:12 8 9 mph 1025.1mb 39f 35f
10:06 8 10 mph 1025.1mb 39f 35f
10:00 8 11 mph 1025.1mb 39f 35f
9:54 11 13 mph 1025.2mb 39f 35f
9:48 11 14 mph 1025.3mb 39f 35f
9:42 11 14 mph 1025.3mb 39f 35f
9:36 13 15 mph 1025.4mb 39f 35f
9:30 13 14 mph 1025.4mb 39f 35f
9:24 14 15 mph 1025.4mb 39f 35f
9:18 14 15 mph 1025.4mb 39f 35f
9:12 14 16 mph 1025.4mb 39f 35f
9:06 15 16 mph 1025.5mb 39f 35f
9:00 14 15 mph 1025.5mb 39f 35f
8:54 14 15 mph 1025.6mb 39f 35f
8:48 13 15 mph 1025.7mb 39f 35f
8:42 14
mph
1025.8mb 39f 35f
8:36 13 15 mph 1025.8mb 39f 35f
8:30 13 14 mph 1025.8mb 39f 35f
8:24 11 13 mph 1025.7mb 39f 35f
8:18 10 11 mph 1025.8mb 39f 35f
8:12 10 11 mph 1025.9mb 39f 35f
8:06 10 11 mph 1025.9mb 39f 35f
8:00 9 10 mph 1025.9mb 39f 35f
7:54 9 10 mph 1026mb 39f 35f
7:48 8 10 mph 1026mb 39f 35f
7:42 8 9 mph 1026mb 39f 35f
7:36 8 9 mph 1026mb 39f 35f
7:30 8 9 mph 1026mb 39f 35f
7:24 8 9 mph 1026.2mb 39f 35f
7:18 8 9 mph 1026.1mb 39f 35f
7:12 8 10 mph 1026.2mb 39f 35f
7:06 9 10 mph 1026.2mb 39f 35f
7:00 9 10 mph 1026.4mb 39f 35f
6:54 8 9 mph 1026.4mb 39f 35f
6:48 7 10 mph 1026.5mb 39f 35f
6:42 7 9 mph 1026.5mb 39f 35f
6:36 8 9 mph 1026.5mb 39f 35f
6:30 9 10 mph 1026.5mb 39f 35f
6:24 8 11 mph 1026.4mb 39f 35f
6:18 9 11 mph 1026.3mb 38f 35f
6:12 10 13 mph 1026.2mb 38f 35f
6:06 9 11 mph 1026.2mb 39f 35f
6:00 10 15 mph 1026.1mb 40f 35f
5:54 11 15 mph 1026.2mb 39f 35f
5:48 13 15 mph 1026.3mb 39f 35f
5:42 14 17 mph 1026.3mb 39f 36f
5:36 14 17 mph 1026.2mb 39f 36f
5:30 14 18 mph 1026.2mb 39f 36f
5:24 16 21 mph 1026.2mb 39f 36f
5:18 17 21 mph 1026.2mb 39f 36f
5:12 18 22 mph 1026.1mb 39f 36f
5:06 17 20 mph 1026.2mb 39f 37f
5:00 17 21 mph 1026.1mb 39f 37f
4:54 16 18 mph 1026.1mb 39f 37f
4:48 16 20 mph 1026mb 39f 38f
4:42 17 20 mph 1026mb 39f 38f
4:36 15 16 mph 1026.1mb 38f 38f
4:30 14 17 mph 1026.1mb 38f 38f
4:24 15 17 mph 1026.1mb 38f 38f
4:18 15 16 mph 1026mb 38f 38f
4:12 16 17 mph 1026.2mb 38f 38f
4:06 10 14 mph 1026.3mb 38f 39f
4:00 13 15 mph 1026.5mb 38f 40f
3:54 11 13 mph 1026.5mb 38f 41f
3:48 11 13 mph 1026.4mb 38f 41f
3:42 9 11 mph 1026.4mb 38f 41f
3:36 10 13 mph 1026.3mb 38f 41f
3:30 11 14 mph 1026.4mb 38f 41f
3:24 10 13 mph 1026.4mb 38f 41f
3:18 9 13 mph 1026.4mb 38f 41f
3:12 10 14 mph 1026.4mb 38f 41f
3:06 10 14 mph 1026.4mb 38f 41f
3:00 10 13 mph 1026.4mb 38f 41f
2:54 9 10 mph 1026.4mb 38f 41f
2:48 7 10 mph 1026.3mb 38f 41f
2:42 10 13 mph 1026.4mb 38f 41f
2:36 10 13 mph 1026.5mb 38f 41f
2:30 9 14 mph 1026.6mb 38f 41f
2:24 11 15 mph 1026.7mb 38f 40f
2:18 9 14 mph 1026.7mb 38f 40f
2:12 8 11 mph 1026.8mb 38f 40f